Kennells Beach, North Carolina
Current Conditions -  °F | °C
As of 6:54 PM on Saturday 20 Dec 2014 (Local Time) from KEWN Reporting Station
Overcast Overcast  
Wind Chill:   Ceiling: 6000
Heat Index:   Visibility: 10mi
Dew Point:   Wind: 5mph
Humidity: 82%   Direction: 40°NE
Pressure: 30.29"   Gusts: NA
Location:  35.1354°N, 76.8853°W
Report Text: KEWN 202354Z 04004KT 10SM OVC060 06/03 A3029 RMK AO2 SLP257 60001 T00560028 10067 20050 53009
Loading
Personal Weather Stations






























Interactive Weather Map New forecast layout! Learn more

10-Day Weather Forecast

Advertisements
Track Severe Weather on mobile